Time;durP1;ratioP1;P1;durP2;ratioP2;P2;SDS_P1;SDS_P2;PMS_P1;PMS_P2;Temp;Humidity;BMP_temperature;BMP_pressure;BME280_temperature;BME280_humidity;BME280_pressure;Samples;Min_cycle;Max_cycle;Signal;HPM_P1;HPM_P2
2022/05/18 00:00:48;;;;;;;3.03;2.10;;;;;;;;;;5098524;28;20237;-68
2022/05/18 00:03:17;;;;;;;4.97;2.73;;;;;;;;;;5099040;28;20567;-67
2022/05/18 00:05:46;;;;;;;6.37;2.43;;;;;;;;;;5098741;28;20288;-68
2022/05/18 00:08:15;;;;;;;6.20;2.80;;;;;;;;;;5098969;28;20203;-67
2022/05/18 00:10:44;;;;;;;7.73;2.80;;;;;;;;;;5098876;28;20207;-68
2022/05/18 00:13:13;;;;;;;5.83;2.87;;;;;;;;;;5098535;28;20226;-67
2022/05/18 00:15:41;;;;;;;7.20;3.00;;;;;;;;;;5098558;28;20253;-67
2022/05/18 00:18:09;;;;;;;3.23;2.60;;;;;;;;;;5098510;28;20209;-67
2022/05/18 00:20:37;;;;;;;5.77;2.93;;;;;;;;;;5098611;28;20233;-67
2022/05/18 00:23:06;;;;;;;6.07;2.80;;;;;;;;;;5098452;28;20235;-67
2022/05/18 00:25:37;;;;;;;5.63;3.33;;;;;;;;;;5098440;28;20663;-67
2022/05/18 00:28:05;;;;;;;7.50;2.70;;;;;;;;;;5098609;28;20260;-68
2022/05/18 00:30:34;;;;;;;6.30;3.30;;;;;;;;;;5098333;28;20207;-67
2022/05/18 00:33:04;;;;;;;3.67;2.80;;;;;;;;;;5098396;28;20309;-67
2022/05/18 00:35:33;;;;;;;5.70;4.10;;;;;;;;;;5098279;28;20226;-67
2022/05/18 00:38:01;;;;;;;4.03;2.87;;;;;;;;;;5097176;28;20201;-66
2022/05/18 00:40:30;;;;;;;5.43;3.00;;;;;;;;;;5096519;28;20244;-67
2022/05/18 00:42:59;;;;;;;5.30;3.47;;;;;;;;;;5090708;28;20202;-65
2022/05/18 00:45:27;;;;;;;6.87;3.60;;;;;;;;;;5088702;28;20279;-66
2022/05/18 00:47:56;;;;;;;8.77;3.70;;;;;;;;;;5093305;28;20213;-66
2022/05/18 00:50:26;;;;;;;6.63;3.37;;;;;;;;;;5096819;28;20229;-66
2022/05/18 00:53:00;;;;;;;8.47;3.27;;;;;;;;;;5096529;28;20230;-66
2022/05/18 00:55:29;;;;;;;7.83;2.97;;;;;;;;;;5096409;28;20749;-66
2022/05/18 00:58:04;;;;;;;5.73;2.77;;;;;;;;;;5098395;28;20234;-65
2022/05/18 01:00:34;;;;;;;5.97;2.77;;;;;;;;;;5097641;28;20209;-66
2022/05/18 01:03:06;;;;;;;3.60;2.73;;;;;;;;;;5095420;28;20241;-65
2022/05/18 01:05:35;;;;;;;5.93;2.67;;;;;;;;;;5097762;28;20222;-65
2022/05/18 01:08:04;;;;;;;5.33;3.13;;;;;;;;;;5097178;28;20538;-65
2022/05/18 01:10:32;;;;;;;3.83;2.90;;;;;;;;;;5097257;28;20241;-65
2022/05/18 01:13:02;;;;;;;4.63;2.53;;;;;;;;;;5097672;28;20253;-66
2022/05/18 01:15:32;;;;;;;7.73;2.70;;;;;;;;;;5097367;28;20267;-66
2022/05/18 01:18:01;;;;;;;5.33;2.53;;;;;;;;;;5097221;28;20744;-65
2022/05/18 01:20:31;;;;;;;3.33;2.53;;;;;;;;;;5097641;28;20206;-66
2022/05/18 01:23:05;;;;;;;4.70;2.83;;;;;;;;;;5097764;28;20584;-65
2022/05/18 01:25:43;;;;;;;6.70;2.93;;;;;;;;;;5097105;28;20775;-65
2022/05/18 01:28:13;;;;;;;4.40;2.73;;;;;;;;;;5097668;28;20209;-65
2022/05/18 01:30:43;;;;;;;6.63;3.17;;;;;;;;;;5096997;28;20589;-65
2022/05/18 01:33:11;;;;;;;6.17;2.93;;;;;;;;;;5097125;28;20227;-65
2022/05/18 01:35:40;;;;;;;3.87;2.37;;;;;;;;;;5092182;28;20225;-72
2022/05/18 01:38:12;;;;;;;3.33;2.70;;;;;;;;;;5097310;28;20255;-74
2022/05/18 01:40:45;;;;;;;2.77;2.30;;;;;;;;;;5097232;28;20292;-74
2022/05/18 01:43:16;;;;;;;3.83;2.73;;;;;;;;;;5097026;28;20236;-73
2022/05/18 01:45:44;;;;;;;4.40;2.90;;;;;;;;;;5096930;28;20223;-73
2022/05/18 01:48:14;;;;;;;5.20;2.80;;;;;;;;;;5097348;28;20216;-74
2022/05/18 01:50:42;;;;;;;4.23;2.63;;;;;;;;;;5097429;28;20239;-73
2022/05/18 01:53:11;;;;;;;3.53;2.63;;;;;;;;;;5099747;28;20267;-73
2022/05/18 01:55:39;;;;;;;4.20;2.50;;;;;;;;;;5101149;28;20283;-74
2022/05/18 01:58:09;;;;;;;5.17;2.63;;;;;;;;;;5101095;28;20657;-73
2022/05/18 02:00:39;;;;;;;5.50;2.80;;;;;;;;;;5101131;28;20235;-73
2022/05/18 02:03:07;;;;;;;4.53;2.80;;;;;;;;;;5100953;28;21321;-73
2022/05/18 02:05:36;;;;;;;4.03;2.97;;;;;;;;;;5100902;28;20717;-73
2022/05/18 02:08:04;;;;;;;4.37;2.60;;;;;;;;;;5100688;28;20237;-73
2022/05/18 02:10:33;;;;;;;4.70;2.93;;;;;;;;;;5101289;28;20244;-73
2022/05/18 02:13:01;;;;;;;6.70;2.80;;;;;;;;;;5100529;28;20260;-70
2022/05/18 02:15:29;;;;;;;7.93;2.53;;;;;;;;;;5100764;28;20229;-71
2022/05/18 02:17:59;;;;;;;3.87;2.97;;;;;;;;;;5100874;28;20229;-71
2022/05/18 02:20:27;;;;;;;3.83;3.30;;;;;;;;;;5101027;28;20220;-71
2022/05/18 02:22:56;;;;;;;4.33;3.20;;;;;;;;;;5100642;28;20233;-71
2022/05/18 02:25:24;;;;;;;5.87;3.23;;;;;;;;;;5100432;28;20259;-72
2022/05/18 02:27:52;;;;;;;4.30;2.93;;;;;;;;;;5100529;28;20654;-71
2022/05/18 02:30:20;;;;;;;8.23;3.60;;;;;;;;;;5100427;28;20258;-71
2022/05/18 02:32:48;;;;;;;5.50;3.17;;;;;;;;;;5091839;28;20202;-71
2022/05/18 02:35:18;;;;;;;9.77;3.23;;;;;;;;;;5099942;28;20256;-71
2022/05/18 02:37:47;;;;;;;8.13;3.37;;;;;;;;;;5100539;28;20207;-71
2022/05/18 02:40:15;;;;;;;6.73;3.57;;;;;;;;;;5100703;28;20239;-71
2022/05/18 02:42:42;;;;;;;4.80;3.70;;;;;;;;;;5100449;28;20230;-71
2022/05/18 02:45:11;;;;;;;6.23;3.60;;;;;;;;;;5100130;28;20283;-71
2022/05/18 02:47:39;;;;;;;5.77;3.50;;;;;;;;;;5100265;28;20688;-71
2022/05/18 02:50:08;;;;;;;12.13;5.00;;;;;;;;;;5100729;28;20289;-71
2022/05/18 02:52:38;;;;;;;5.60;3.80;;;;;;;;;;5100457;28;20231;-71
2022/05/18 02:57:52;;;;;;;8.10;3.60;;;;;;;;;;5100391;28;20233;-71
2022/05/18 03:00:20;;;;;;;7.20;4.33;;;;;;;;;;5100178;28;20201;-71
2022/05/18 03:02:48;;;;;;;6.27;3.87;;;;;;;;;;5099928;28;20606;-71
2022/05/18 03:05:16;;;;;;;5.23;3.70;;;;;;;;;;5099217;28;20246;-69
2022/05/18 03:07:46;;;;;;;6.40;3.43;;;;;;;;;;5100002;28;20212;-69
2022/05/18 03:10:15;;;;;;;7.93;4.17;;;;;;;;;;5100153;28;20246;-69
2022/05/18 03:12:44;;;;;;;11.30;4.13;;;;;;;;;;5099908;28;20276;-69
2022/05/18 03:15:12;;;;;;;8.10;4.03;;;;;;;;;;5099367;28;20671;-69
2022/05/18 03:17:41;;;;;;;6.93;3.90;;;;;;;;;;5100207;28;20202;-69
2022/05/18 03:23:33;;;;;;;4.63;2.87;;;;;;;;;;5100065;28;20202;-69
2022/05/18 03:25:44;;;;;;;6.10;4.00;;;;;;;;;;5099876;28;20267;-70
2022/05/18 03:28:12;;;;;;;6.63;3.77;;;;;;;;;;5099902;28;20217;-69
2022/05/18 03:30:40;;;;;;;8.40;4.13;;;;;;;;;;5099358;28;20206;-71
2022/05/18 03:33:08;;;;;;;10.90;4.00;;;;;;;;;;5099360;28;20233;-71
2022/05/18 03:35:36;;;;;;;6.40;3.47;;;;;;;;;;5099530;28;20264;-70
2022/05/18 03:38:06;;;;;;;8.67;4.07;;;;;;;;;;5099726;28;20203;-70
2022/05/18 03:40:36;;;;;;;6.20;3.97;;;;;;;;;;5099461;28;20205;-71
2022/05/18 03:43:05;;;;;;;7.60;4.23;;;;;;;;;;5099726;28;20206;-70
2022/05/18 03:45:34;;;;;;;6.07;3.47;;;;;;;;;;5099233;28;20248;-70
2022/05/18 03:48:02;;;;;;;8.80;3.87;;;;;;;;;;5099427;28;20291;-70
2022/05/18 03:50:31;;;;;;;6.83;4.00;;;;;;;;;;5099189;28;20241;-69
2022/05/18 03:53:00;;;;;;;11.10;3.77;;;;;;;;;;5099036;28;20660;-70
2022/05/18 03:55:30;;;;;;;10.07;5.20;;;;;;;;;;5099063;28;20726;-70
2022/05/18 03:57:58;;;;;;;10.00;4.33;;;;;;;;;;5099313;28;20209;-70
2022/05/18 04:00:26;;;;;;;10.57;4.10;;;;;;;;;;5099050;28;20229;-70
2022/05/18 04:02:54;;;;;;;9.93;3.87;;;;;;;;;;5098812;28;20753;-70
2022/05/18 04:05:22;;;;;;;7.00;3.90;;;;;;;;;;5098800;28;20671;-70
2022/05/18 04:07:51;;;;;;;5.33;3.67;;;;;;;;;;5098781;28;20213;-70
2022/05/18 04:10:20;;;;;;;5.60;3.77;;;;;;;;;;5098409;28;20209;-73
2022/05/18 04:12:49;;;;;;;7.37;3.90;;;;;;;;;;5098573;28;20246;-70
2022/05/18 04:15:18;;;;;;;6.60;4.00;;;;;;;;;;5095596;28;20282;-70
2022/05/18 04:17:48;;;;;;;6.00;3.57;;;;;;;;;;5098214;28;20233;-70
2022/05/18 04:20:17;;;;;;;6.87;3.73;;;;;;;;;;5097563;28;20251;-70
2022/05/18 04:22:45;;;;;;;5.73;4.13;;;;;;;;;;5097688;28;20202;-71
2022/05/18 04:25:15;;;;;;;5.47;4.00;;;;;;;;;;5097863;28;20194;-70
2022/05/18 04:27:47;;;;;;;8.60;4.53;;;;;;;;;;5096954;28;20198;-71
2022/05/18 04:30:17;;;;;;;8.80;4.07;;;;;;;;;;5097269;28;20194;-71
2022/05/18 04:32:45;;;;;;;10.23;5.40;;;;;;;;;;5097441;28;20247;-71
2022/05/18 04:35:14;;;;;;;6.63;4.47;;;;;;;;;;5095964;28;20881;-71
2022/05/18 04:37:42;;;;;;;10.50;4.97;;;;;;;;;;5096773;28;20634;-71
2022/05/18 04:40:10;;;;;;;12.10;4.40;;;;;;;;;;5096689;28;20727;-71
2022/05/18 04:42:39;;;;;;;9.97;4.90;;;;;;;;;;5097343;28;20229;-71
2022/05/18 04:45:09;;;;;;;9.27;4.40;;;;;;;;;;5096961;28;20276;-71
2022/05/18 04:47:38;;;;;;;8.87;4.60;;;;;;;;;;5097350;28;20201;-71
2022/05/18 04:50:07;;;;;;;6.67;4.07;;;;;;;;;;5097660;28;20267;-71
2022/05/18 04:52:35;;;;;;;11.30;4.60;;;;;;;;;;5097454;28;20563;-71
2022/05/18 04:55:04;;;;;;;7.33;4.30;;;;;;;;;;5097076;28;20222;-64
2022/05/18 04:57:32;;;;;;;7.20;4.53;;;;;;;;;;5097284;28;20572;-64
2022/05/18 05:00:00;;;;;;;7.07;4.23;;;;;;;;;;5097771;28;20696;-64
2022/05/18 05:02:28;;;;;;;5.57;4.00;;;;;;;;;;5097717;28;20247;-64
2022/05/18 05:04:58;;;;;;;8.97;4.60;;;;;;;;;;5098069;28;20289;-64
2022/05/18 05:07:26;;;;;;;5.87;4.10;;;;;;;;;;5097615;28;20283;-64
2022/05/18 05:09:54;;;;;;;9.90;4.47;;;;;;;;;;5097678;28;20205;-64
2022/05/18 05:12:22;;;;;;;7.20;4.73;;;;;;;;;;5097936;28;20210;-64
2022/05/18 05:14:50;;;;;;;12.03;4.83;;;;;;;;;;5097347;28;20658;-64
2022/05/18 05:17:18;;;;;;;6.87;5.03;;;;;;;;;;5097579;28;20230;-63
2022/05/18 05:19:46;;;;;;;5.27;4.20;;;;;;;;;;5097426;28;20236;-71
2022/05/18 05:22:15;;;;;;;5.77;4.60;;;;;;;;;;5096493;28;20207;-72
2022/05/18 05:24:43;;;;;;;6.43;5.07;;;;;;;;;;5097272;28;20726;-72
2022/05/18 05:27:11;;;;;;;8.20;4.20;;;;;;;;;;5096833;28;20226;-72
2022/05/18 05:29:39;;;;;;;7.47;4.50;;;;;;;;;;5097450;28;20216;-71
2022/05/18 05:32:08;;;;;;;9.27;5.23;;;;;;;;;;5097838;28;20208;-72
2022/05/18 05:34:36;;;;;;;12.37;6.23;;;;;;;;;;5092721;28;20238;-72
2022/05/18 05:37:04;;;;;;;11.60;6.30;;;;;;;;;;5097585;28;20235;-71
2022/05/18 05:39:34;;;;;;;12.67;6.70;;;;;;;;;;5097098;28;20218;-72
2022/05/18 05:42:02;;;;;;;15.97;6.70;;;;;;;;;;5097370;28;20211;-72
2022/05/18 05:44:30;;;;;;;10.50;7.57;;;;;;;;;;5097207;28;20208;-72
2022/05/18 05:47:01;;;;;;;11.17;6.53;;;;;;;;;;5097474;28;20267;-72
2022/05/18 05:49:29;;;;;;;11.43;5.57;;;;;;;;;;5097484;28;20208;-72
2022/05/18 05:51:57;;;;;;;11.23;6.03;;;;;;;;;;5097521;28;20203;-72
2022/05/18 05:54:26;;;;;;;11.50;5.70;;;;;;;;;;5097200;28;20261;-72
2022/05/18 05:56:56;;;;;;;12.37;5.93;;;;;;;;;;5097312;28;20293;-72
2022/05/18 05:59:24;;;;;;;12.23;5.50;;;;;;;;;;5097099;28;20228;-72
2022/05/18 06:01:59;;;;;;;10.43;6.07;;;;;;;;;;5097154;28;20297;-72
2022/05/18 06:04:29;;;;;;;7.70;5.23;;;;;;;;;;5097507;28;20211;-72
2022/05/18 06:06:58;;;;;;;10.50;6.53;;;;;;;;;;5097162;28;20270;-72
2022/05/18 06:09:26;;;;;;;11.67;5.80;;;;;;;;;;5097347;28;20209;-73
2022/05/18 06:11:54;;;;;;;13.47;5.57;;;;;;;;;;5097227;28;20245;-72
2022/05/18 06:14:24;;;;;;;9.27;5.80;;;;;;;;;;5097164;28;20202;-72
2022/05/18 06:16:52;;;;;;;12.77;5.63;;;;;;;;;;5097174;28;20260;-74
2022/05/18 06:19:20;;;;;;;17.03;5.63;;;;;;;;;;5097382;28;20208;-74
2022/05/18 06:21:49;;;;;;;12.40;5.70;;;;;;;;;;5097232;28;20215;-74
2022/05/18 06:24:18;;;;;;;9.30;5.47;;;;;;;;;;5097143;28;20215;-74
2022/05/18 06:26:46;;;;;;;11.73;5.80;;;;;;;;;;5096282;28;20216;-66
2022/05/18 06:29:14;;;;;;;9.47;5.87;;;;;;;;;;5096392;28;20203;-66
2022/05/18 06:31:44;;;;;;;9.60;6.23;;;;;;;;;;5096762;28;20664;-66
2022/05/18 06:34:12;;;;;;;11.53;5.40;;;;;;;;;;5095948;28;20209;-66
2022/05/18 06:36:40;;;;;;;7.43;5.50;;;;;;;;;;5096482;28;20249;-66
2022/05/18 06:39:08;;;;;;;14.37;4.70;;;;;;;;;;5097065;28;20227;-66
2022/05/18 06:41:36;;;;;;;7.20;4.60;;;;;;;;;;5100245;28;20633;-64
2022/05/18 06:44:05;;;;;;;7.47;3.90;;;;;;;;;;5100207;28;20207;-63
2022/05/18 06:46:34;;;;;;;18.80;13.13;;;;;;;;;;5100491;28;20222;-63
2022/05/18 06:49:04;;;;;;;7.20;4.50;;;;;;;;;;5100254;28;20573;-65
2022/05/18 06:51:33;;;;;;;9.43;4.20;;;;;;;;;;5086968;28;20242;-66
2022/05/18 06:54:02;;;;;;;7.63;4.37;;;;;;;;;;5100430;28;20213;-64
2022/05/18 06:56:30;;;;;;;8.87;4.60;;;;;;;;;;5100093;28;20217;-64
2022/05/18 06:58:59;;;;;;;10.23;4.70;;;;;;;;;;5100523;28;20207;-64
2022/05/18 07:01:28;;;;;;;8.23;4.40;;;;;;;;;;5097233;28;20265;-64
2022/05/18 07:03:57;;;;;;;4.57;3.27;;;;;;;;;;5099937;28;20258;-65
2022/05/18 07:06:30;;;;;;;4.57;3.50;;;;;;;;;;5094774;28;20300;-67
2022/05/18 07:08:58;;;;;;;10.27;3.10;;;;;;;;;;5099353;28;20258;-67
2022/05/18 07:11:27;;;;;;;7.10;3.97;;;;;;;;;;5096872;28;20209;-67
2022/05/18 07:13:55;;;;;;;9.23;3.43;;;;;;;;;;5099533;28;20232;-66
2022/05/18 07:16:24;;;;;;;16.33;9.43;;;;;;;;;;5099741;28;20260;-67
2022/05/18 07:18:52;;;;;;;15.27;7.40;;;;;;;;;;5099469;28;20261;-67
2022/05/18 07:21:21;;;;;;;9.97;3.83;;;;;;;;;;5099861;28;20204;-67
2022/05/18 07:23:50;;;;;;;7.20;4.03;;;;;;;;;;5096588;28;20289;-67
2022/05/18 07:26:18;;;;;;;8.27;3.63;;;;;;;;;;5092215;28;20254;-67
2022/05/18 07:28:48;;;;;;;8.87;3.83;;;;;;;;;;5099273;28;20211;-67
2022/05/18 07:31:16;;;;;;;5.60;3.00;;;;;;;;;;5094249;28;20238;-67
2022/05/18 07:34:04;;;;;;;6.03;3.60;;;;;;;;;;5092725;28;20406;-69
2022/05/18 07:36:32;;;;;;;5.20;3.23;;;;;;;;;;5098312;28;20272;-67
2022/05/18 07:39:02;;;;;;;3.10;2.30;;;;;;;;;;5098272;28;20633;-67
2022/05/18 07:41:30;;;;;;;4.73;2.50;;;;;;;;;;5098623;28;20205;-68
2022/05/18 07:43:58;;;;;;;6.00;3.13;;;;;;;;;;5098549;28;20212;-69
2022/05/18 07:46:26;;;;;;;5.97;2.87;;;;;;;;;;5098478;28;20721;-68
2022/05/18 07:48:54;;;;;;;5.83;2.37;;;;;;;;;;5090920;28;20202;-68
2022/05/18 07:51:23;;;;;;;6.70;2.53;;;;;;;;;;5081294;28;20689;-68
2022/05/18 07:53:51;;;;;;;4.63;2.50;;;;;;;;;;5080070;28;20202;-67
2022/05/18 07:56:20;;;;;;;3.83;2.60;;;;;;;;;;5097051;28;20565;-68
2022/05/18 07:58:48;;;;;;;5.53;2.43;;;;;;;;;;5098563;28;20232;-67
2022/05/18 08:01:17;;;;;;;4.27;2.10;;;;;;;;;;5098601;28;20229;-67
2022/05/18 08:03:45;;;;;;;3.97;2.27;;;;;;;;;;5098646;28;20202;-66
2022/05/18 08:06:13;;;;;;;6.07;2.47;;;;;;;;;;5098303;28;20777;-67
2022/05/18 08:08:41;;;;;;;2.80;2.33;;;;;;;;;;5098367;28;20206;-68
2022/05/18 08:16:41;;;;;;;4.47;2.50;;;;;;;;;;5098611;28;20257;-69
2022/05/18 08:19:12;;;;;;;4.50;2.20;;;;;;;;;;5098684;28;20206;-69
2022/05/18 08:21:40;;;;;;;2.63;2.20;;;;;;;;;;5098351;28;20202;-68
2022/05/18 08:24:08;;;;;;;9.90;2.77;;;;;;;;;;5097894;28;20210;-67
2022/05/18 08:26:36;;;;;;;7.50;2.53;;;;;;;;;;5098350;28;20658;-67
2022/05/18 08:29:06;;;;;;;4.23;2.37;;;;;;;;;;5097496;28;20251;-68
2022/05/18 08:31:34;;;;;;;5.37;2.50;;;;;;;;;;5097882;28;20207;-66
2022/05/18 08:34:03;;;;;;;10.20;2.37;;;;;;;;;;5097529;28;20202;-68
2022/05/18 08:36:31;;;;;;;3.97;2.37;;;;;;;;;;5097710;28;20219;-69
2022/05/18 08:38:59;;;;;;;5.50;2.60;;;;;;;;;;5096414;28;20201;-67
2022/05/18 08:41:28;;;;;;;4.97;2.37;;;;;;;;;;5097723;28;20198;-67
2022/05/18 08:43:57;;;;;;;4.43;2.60;;;;;;;;;;5096931;28;20235;-68
2022/05/18 08:46:30;;;;;;;6.33;3.17;;;;;;;;;;5097469;28;20211;-70
2022/05/18 08:49:00;;;;;;;6.03;2.73;;;;;;;;;;5095450;28;20205;-70
2022/05/18 08:51:35;;;;;;;3.10;2.00;;;;;;;;;;5097820;28;20556;-70
2022/05/18 08:54:14;;;;;;;4.70;2.40;;;;;;;;;;5097829;28;20211;-68
2022/05/18 08:56:43;;;;;;;6.83;2.83;;;;;;;;;;5097307;28;20255;-68
2022/05/18 08:59:13;;;;;;;5.67;2.50;;;;;;;;;;5097550;28;20202;-67
2022/05/18 09:01:46;;;;;;;3.20;2.43;;;;;;;;;;5096011;28;20246;-69
2022/05/18 09:04:15;;;;;;;6.13;2.40;;;;;;;;;;5097433;28;20198;-69
2022/05/18 09:06:46;;;;;;;6.93;2.33;;;;;;;;;;5097470;28;20213;-69
2022/05/18 09:12:02;;;;;;;5.17;2.30;;;;;;;;;;5097513;28;20272;-68
2022/05/18 09:14:37;;;;;;;5.27;2.73;;;;;;;;;;5097374;28;20236;-66
2022/05/18 09:17:11;;;;;;;5.53;2.60;;;;;;;;;;5097420;28;20232;-68
2022/05/18 09:19:49;;;;;;;5.23;2.37;;;;;;;;;;5096484;28;20263;-68
2022/05/18 09:22:25;;;;;;;9.60;2.77;;;;;;;;;;5096100;28;20206;-68
2022/05/18 09:25:01;;;;;;;6.63;2.47;;;;;;;;;;5095659;28;20203;-68
2022/05/18 09:27:38;;;;;;;3.90;2.60;;;;;;;;;;5096389;28;20198;-67
2022/05/18 09:30:10;;;;;;;6.37;2.67;;;;;;;;;;5095652;28;20751;-70
2022/05/18 09:32:52;;;;;;;9.33;2.90;;;;;;;;;;5097161;28;20206;-68
2022/05/18 09:35:25;;;;;;;5.40;2.53;;;;;;;;;;5096090;28;20253;-67
2022/05/18 09:37:56;;;;;;;3.93;2.47;;;;;;;;;;5096840;28;20233;-69
2022/05/18 09:40:26;;;;;;;5.70;2.60;;;;;;;;;;5097003;28;20257;-66
2022/05/18 09:42:55;;;;;;;13.77;2.80;;;;;;;;;;5090752;28;20682;-66
2022/05/18 09:45:25;;;;;;;4.37;2.43;;;;;;;;;;5096439;28;20223;-66
2022/05/18 09:47:57;;;;;;;5.97;2.10;;;;;;;;;;5097320;28;20241;-69
2022/05/18 09:50:26;;;;;;;5.27;2.30;;;;;;;;;;5094712;28;20232;-68
2022/05/18 09:52:54;;;;;;;5.93;3.00;;;;;;;;;;5091880;28;20271;-67
2022/05/18 09:55:25;;;;;;;3.00;2.70;;;;;;;;;;5096096;28;20205;-68
2022/05/18 09:57:56;;;;;;;4.27;2.60;;;;;;;;;;5095808;28;20693;-68
2022/05/18 10:00:31;;;;;;;4.93;2.90;;;;;;;;;;5095711;28;20209;-69
2022/05/18 10:08:45;;;;;;;3.80;2.63;;;;;;;;;;5093602;28;20199;-67
2022/05/18 10:11:14;;;;;;;8.50;2.60;;;;;;;;;;5096142;28;20203;-67
2022/05/18 10:13:44;;;;;;;4.43;2.70;;;;;;;;;;5097426;28;20197;-66
2022/05/18 10:16:17;;;;;;;5.83;3.20;;;;;;;;;;5099459;28;20229;-66
2022/05/18 10:18:50;;;;;;;6.80;3.10;;;;;;;;;;5097037;28;20217;-67
2022/05/18 10:21:21;;;;;;;2.93;2.70;;;;;;;;;;5099210;28;20204;-66
2022/05/18 10:23:59;;;;;;;7.43;2.67;;;;;;;;;;5098637;28;20246;-66
2022/05/18 10:26:28;;;;;;;2.87;2.20;;;;;;;;;;5098624;28;20224;-67
2022/05/18 10:28:59;;;;;;;4.27;2.20;;;;;;;;;;5099523;28;20233;-66
2022/05/18 10:31:29;;;;;;;2.60;2.07;;;;;;;;;;5097027;28;20205;-66
2022/05/18 10:34:22;;;;;;;4.40;2.90;;;;;;;;;;5096907;28;20206;-67
2022/05/18 10:36:51;;;;;;;6.10;2.57;;;;;;;;;;5097340;28;20222;-68
2022/05/18 10:39:29;;;;;;;4.03;2.70;;;;;;;;;;5098847;28;20218;-67
2022/05/18 10:41:58;;;;;;;4.83;2.30;;;;;;;;;;5098131;28;20567;-70
2022/05/18 10:44:32;;;;;;;3.60;2.00;;;;;;;;;;5099926;28;20568;-67
2022/05/18 10:47:12;;;;;;;3.93;2.23;;;;;;;;;;5100015;28;20228;-69
2022/05/18 10:49:42;;;;;;;3.13;1.70;;;;;;;;;;5100252;28;20263;-67
2022/05/18 10:52:12;;;;;;;1.83;1.73;;;;;;;;;;5099420;28;20243;-68
2022/05/18 10:54:41;;;;;;;5.43;2.23;;;;;;;;;;5099283;28;20748;-68
2022/05/18 10:57:13;;;;;;;3.20;2.10;;;;;;;;;;5098816;28;20246;-67
2022/05/18 10:59:47;;;;;;;3.07;1.97;;;;;;;;;;5098837;28;20255;-69
2022/05/18 11:02:21;;;;;;;3.60;2.43;;;;;;;;;;5096738;28;20255;-68
2022/05/18 11:04:54;;;;;;;3.90;2.10;;;;;;;;;;5097203;28;20203;-70
2022/05/18 11:07:23;;;;;;;3.47;2.23;;;;;;;;;;5099860;28;20276;-69
2022/05/18 11:09:51;;;;;;;4.13;2.20;;;;;;;;;;5099313;28;20212;-68
2022/05/18 11:12:27;;;;;;;3.50;1.67;;;;;;;;;;5099443;28;20639;-68
2022/05/18 11:14:58;;;;;;;2.23;1.90;;;;;;;;;;5097968;28;20204;-69
2022/05/18 11:17:33;;;;;;;4.27;2.10;;;;;;;;;;5098669;28;20723;-69
2022/05/18 11:20:13;;;;;;;2.83;1.90;;;;;;;;;;5097387;28;20213;-69
2022/05/18 11:22:48;;;;;;;6.20;2.10;;;;;;;;;;5096419;28;20204;-68
2022/05/18 11:25:21;;;;;;;4.93;2.33;;;;;;;;;;5095786;28;20226;-68
2022/05/18 11:28:15;;;;;;;4.10;2.23;;;;;;;;;;5095005;28;20198;-78
2022/05/18 11:30:45;;;;;;;2.63;1.90;;;;;;;;;;5098144;28;20203;-77
2022/05/18 11:33:20;;;;;;;3.00;1.83;;;;;;;;;;5097691;28;20201;-78
2022/05/18 11:35:55;;;;;;;3.97;2.20;;;;;;;;;;5098067;28;20250;-76
2022/05/18 11:38:35;;;;;;;4.27;1.90;;;;;;;;;;5099043;28;20740;-78
2022/05/18 11:41:10;;;;;;;3.27;1.73;;;;;;;;;;5098811;28;20549;-78
2022/05/18 11:43:43;;;;;;;3.73;1.70;;;;;;;;;;5098228;28;20689;-78
2022/05/18 11:46:27;;;;;;;4.43;2.10;;;;;;;;;;5099347;28;20318;-77
2022/05/18 11:49:00;;;;;;;5.20;2.10;;;;;;;;;;5099048;28;20566;-77
2022/05/18 11:51:41;;;;;;;3.20;1.50;;;;;;;;;;5098982;28;20207;-77
2022/05/18 11:54:15;;;;;;;2.60;1.40;;;;;;;;;;5098771;28;20212;-77
2022/05/18 11:56:48;;;;;;;2.37;1.80;;;;;;;;;;5099083;28;20230;-76
2022/05/18 11:59:44;;;;;;;2.93;1.80;;;;;;;;;;5098282;28;20721;-76
2022/05/18 12:02:42;;;;;;;3.80;1.83;;;;;;;;;;5098002;28;20234;-69
2022/05/18 12:05:22;;;;;;;2.40;1.90;;;;;;;;;;5099004;28;20230;-68
2022/05/18 12:08:01;;;;;;;3.57;2.07;;;;;;;;;;5098774;28;20259;-69
2022/05/18 12:10:33;;;;;;;3.87;2.10;;;;;;;;;;5099022;28;20217;-69
2022/05/18 12:13:03;;;;;;;3.13;1.65;;;;;;;;;;5098342;28;20624;-69
2022/05/18 12:15:38;;;;;;;4.05;1.70;;;;;;;;;;5098472;28;20230;-69
2022/05/18 12:18:08;;;;;;;4.43;1.80;;;;;;;;;;5092754;28;20646;-69
2022/05/18 12:20:38;;;;;;;3.43;1.20;;;;;;;;;;5090715;28;20239;-69
2022/05/18 12:23:10;;;;;;;2.17;1.70;;;;;;;;;;5098223;28;20676;-69
2022/05/18 12:25:38;;;;;;;2.00;1.80;;;;;;;;;;5098316;28;20278;-69
2022/05/18 12:28:07;;;;;;;4.00;2.20;;;;;;;;;;5097865;28;20226;-69
2022/05/18 12:30:37;;;;;;;1.87;1.57;;;;;;;;;;5098269;28;20211;-68
2022/05/18 12:33:06;;;;;;;4.20;1.60;;;;;;;;;;5092090;28;20232;-69
2022/05/18 12:35:35;;;;;;;3.67;1.87;;;;;;;;;;5096421;28;20284;-69
2022/05/18 12:38:05;;;;;;;2.17;1.40;;;;;;;;;;5098011;28;20207;-69
2022/05/18 12:40:49;;;;;;;2.93;1.70;;;;;;;;;;5097943;28;20204;-69
2022/05/18 12:43:18;;;;;;;3.87;1.70;;;;;;;;;;5097748;28;20215;-69
2022/05/18 12:45:48;;;;;;;1.93;1.57;;;;;;;;;;5089757;28;20720;-69
2022/05/18 12:48:22;;;;;;;4.00;1.77;;;;;;;;;;5093943;28;20257;-69
2022/05/18 12:51:02;;;;;;;2.03;1.63;;;;;;;;;;5097829;28;20214;-69
2022/05/18 12:53:45;;;;;;;2.43;1.60;;;;;;;;;;5097755;28;20208;-69
2022/05/18 12:56:19;;;;;;;4.40;1.70;;;;;;;;;;5097565;28;20227;-69
2022/05/18 12:58:54;;;;;;;3.70;1.70;;;;;;;;;;5097656;28;20219;-69
2022/05/18 13:01:23;;;;;;;2.40;1.40;;;;;;;;;;5097009;28;20696;-69
2022/05/18 13:03:58;;;;;;;3.78;1.75;;;;;;;;;;5097475;28;20206;-68
2022/05/18 13:06:42;;;;;;;1.48;1.38;;;;;;;;;;5096037;28;20252;-68
2022/05/18 13:09:40;;;;;;;1.75;1.40;;;;;;;;;;5095205;28;20226;-68
2022/05/18 13:12:32;;;;;;;3.63;1.50;;;;;;;;;;5052778;28;20203;-68
2022/05/18 13:15:03;;;;;;;5.20;1.83;;;;;;;;;;5092564;28;20291;-67
2022/05/18 13:17:59;;;;;;;2.90;1.48;;;;;;;;;;5096975;28;20231;-69
2022/05/18 13:20:32;;;;;;;2.35;1.73;;;;;;;;;;5067211;28;20256;-68
2022/05/18 13:23:01;;;;;;;3.20;1.40;;;;;;;;;;5086733;28;20201;-67
2022/05/18 13:25:30;;;;;;;3.65;1.35;;;;;;;;;;5097320;28;21100;-66
2022/05/18 13:28:00;;;;;;;2.95;1.95;;;;;;;;;;5096950;28;20642;-66
2022/05/18 13:30:34;;;;;;;3.55;1.15;;;;;;;;;;5097010;28;20205;-65
2022/05/18 13:33:22;;;;;;;3.17;1.67;;;;;;;;;;5088679;28;20208;-65
2022/05/18 13:35:50;;;;;;;2.97;1.55;;;;;;;;;;5084485;28;20229;-65
2022/05/18 13:38:21;;;;;;;6.78;2.38;;;;;;;;;;5097451;28;20209;-65
2022/05/18 13:40:53;;;;;;;2.83;1.98;;;;;;;;;;5097146;28;20644;-65
2022/05/18 13:43:23;;;;;;;1.67;1.50;;;;;;;;;;5096727;28;20269;-65
2022/05/18 13:45:54;;;;;;;2.42;1.42;;;;;;;;;;5097249;28;20281;-67
2022/05/18 13:48:24;;;;;;;1.40;1.30;;;;;;;;;;5098629;28;20205;-67
2022/05/18 13:51:14;;;;;;;3.30;1.50;;;;;;;;;;5101542;28;20215;-67
2022/05/18 13:53:46;;;;;;;1.50;1.40;;;;;;;;;;5101520;28;20256;-67
2022/05/18 13:56:18;;;;;;;5.90;2.17;;;;;;;;;;5101488;28;20228;-67
2022/05/18 13:58:48;;;;;;;2.22;1.58;;;;;;;;;;5101161;28;20212;-67
2022/05/18 14:01:19;;;;;;;2.42;2.20;;;;;;;;;;5100840;28;20386;-67
2022/05/18 14:03:52;;;;;;;1.80;1.42;;;;;;;;;;5101260;28;20295;-67
2022/05/18 14:06:22;;;;;;;3.03;1.55;;;;;;;;;;5100936;28;20591;-67
2022/05/18 14:09:11;;;;;;;2.35;1.50;;;;;;;;;;5100923;28;20201;-65
2022/05/18 14:11:39;;;;;;;1.83;1.58;;;;;;;;;;5101105;28;20230;-65
2022/05/18 14:14:17;;;;;;;3.58;1.75;;;;;;;;;;5100785;28;20220;-65
2022/05/18 14:16:56;;;;;;;3.42;1.50;;;;;;;;;;5100773;28;20656;-66
2022/05/18 14:19:46;;;;;;;3.30;1.65;;;;;;;;;;5095374;28;20231;-67
2022/05/18 14:22:15;;;;;;;2.83;1.60;;;;;;;;;;5100710;28;20266;-67
2022/05/18 14:24:45;;;;;;;2.90;1.63;;;;;;;;;;5100643;28;20235;-67
2022/05/18 14:27:15;;;;;;;2.15;1.40;;;;;;;;;;5100821;28;20260;-66
2022/05/18 14:29:47;;;;;;;1.70;1.60;;;;;;;;;;5100536;28;20232;-66
2022/05/18 14:32:18;;;;;;;2.50;1.50;;;;;;;;;;5100532;28;20274;-66
2022/05/18 14:34:50;;;;;;;1.58;1.40;;;;;;;;;;5095115;28;20236;-67
2022/05/18 14:37:27;;;;;;;1.50;1.30;;;;;;;;;;5100321;28;20221;-66
2022/05/18 14:39:56;;;;;;;1.85;1.40;;;;;;;;;;5100259;28;20262;-66
2022/05/18 14:42:26;;;;;;;1.83;1.58;;;;;;;;;;5100432;28;20687;-66
2022/05/18 14:45:00;;;;;;;2.03;1.38;;;;;;;;;;5100313;28;20236;-66
2022/05/18 14:47:29;;;;;;;2.38;1.50;;;;;;;;;;5099872;28;20220;-66
2022/05/18 14:50:05;;;;;;;3.90;1.63;;;;;;;;;;5099658;28;20727;-67
2022/05/18 14:52:35;;;;;;;1.92;1.48;;;;;;;;;;5100103;28;20679;-67
2022/05/18 14:55:09;;;;;;;3.50;1.40;;;;;;;;;;5099910;28;20240;-67
2022/05/18 14:57:38;;;;;;;4.63;2.08;;;;;;;;;;5099617;28;20209;-67
2022/05/18 15:00:09;;;;;;;1.77;1.65;;;;;;;;;;5098245;28;20221;-67
2022/05/18 15:02:41;;;;;;;2.05;1.60;;;;;;;;;;5096790;28;20247;-67
2022/05/18 15:05:11;;;;;;;2.70;1.83;;;;;;;;;;5099240;28;20661;-67
2022/05/18 15:07:39;;;;;;;2.55;1.83;;;;;;;;;;5099355;28;20333;-69
2022/05/18 15:10:14;;;;;;;1.40;1.25;;;;;;;;;;5099190;28;20228;-66
2022/05/18 15:12:43;;;;;;;3.05;1.55;;;;;;;;;;5099328;28;20200;-66
2022/05/18 15:15:22;;;;;;;3.63;1.55;;;;;;;;;;5099633;28;20240;-68
2022/05/18 15:17:55;;;;;;;1.58;1.50;;;;;;;;;;5099470;28;20242;-67
2022/05/18 15:20:24;;;;;;;2.00;1.60;;;;;;;;;;5089411;28;20698;-67
2022/05/18 15:22:52;;;;;;;1.75;1.52;;;;;;;;;;5099287;28;20208;-64